createdAt,value
2023-06-03T00:00:01.596Z,2.90
2023-06-03T00:05:06.060Z,5.40
2023-06-03T00:10:09.606Z,4.20
2023-06-03T00:15:12.582Z,3.20
2023-06-03T00:20:15.593Z,2.90
2023-06-03T00:25:18.462Z,2.80
2023-06-03T00:30:21.351Z,2.60
2023-06-03T00:35:24.570Z,5.20
2023-06-03T00:40:27.584Z,2.70
2023-06-03T00:45:30.636Z,3.00
2023-06-03T00:50:34.370Z,4.20
2023-06-03T00:55:38.518Z,2.40
2023-06-03T01:00:41.403Z,4.50
2023-06-03T01:05:47.020Z,3.80
2023-06-03T01:11:06.725Z,3.00
2023-06-03T01:16:10.141Z,3.20
2023-06-03T01:21:13.776Z,5.80
2023-06-03T01:26:18.035Z,3.20
2023-06-03T01:31:21.063Z,3.40
2023-06-03T01:36:24.099Z,3.90
2023-06-03T01:41:27.006Z,3.30
2023-06-03T01:46:29.985Z,3.50
2023-06-03T01:51:32.998Z,4.00
2023-06-03T01:56:36.218Z,1.70
2023-06-03T02:01:44.475Z,2.20
2023-06-03T02:06:56.794Z,2.80
2023-06-03T02:12:01.207Z,4.00
2023-06-03T02:17:04.368Z,2.10
2023-06-03T02:22:07.951Z,4.60
2023-06-03T02:27:11.748Z,2.50
2023-06-03T02:32:14.667Z,2.90
2023-06-03T02:37:17.645Z,4.70
2023-06-03T02:42:22.121Z,2.70
2023-06-03T02:47:25.050Z,4.70
2023-06-03T02:52:27.942Z,2.80
2023-06-03T02:57:30.936Z,2.20
2023-06-03T03:02:34.458Z,1.60
2023-06-03T03:07:38.085Z,3.60
2023-06-03T03:12:40.962Z,4.30
2023-06-03T03:17:44.048Z,2.40
2023-06-03T03:22:47.111Z,2.80
2023-06-03T03:27:50.092Z,4.50
2023-06-03T03:32:53.085Z,2.60
2023-06-03T03:38:04.930Z,2.50
2023-06-03T03:43:15.951Z,3.40
2023-06-03T03:48:18.926Z,2.10
2023-06-03T03:53:26.499Z,2.80
2023-06-03T03:58:41.606Z,3.90
2023-06-03T04:03:46.795Z,3.80
2023-06-03T04:08:49.716Z,2.90
2023-06-03T04:13:52.972Z,2.30
2023-06-03T04:18:55.905Z,2.70
2023-06-03T04:23:59.020Z,3.50
2023-06-03T04:29:03.269Z,4.30
2023-06-03T04:34:06.542Z,2.80
2023-06-03T04:39:09.892Z,4.00
2023-06-03T04:44:14.418Z,3.30
2023-06-03T04:49:17.469Z,3.00
2023-06-03T04:54:25.280Z,2.90
2023-06-03T04:59:28.323Z,3.20
2023-06-03T05:04:31.285Z,1.50
2023-06-03T05:09:34.236Z,4.80
2023-06-03T05:14:37.112Z,2.30
2023-06-03T05:19:40.170Z,3.50
2023-06-03T05:24:43.190Z,3.00
2023-06-03T05:29:46.959Z,3.40
2023-06-03T05:34:49.915Z,3.40
2023-06-03T05:39:52.806Z,4.20
2023-06-03T05:44:56.177Z,2.90
2023-06-03T05:49:59.169Z,3.70
2023-06-03T05:55:02.087Z,3.20
2023-06-03T06:00:06.104Z,4.20
2023-06-03T06:05:09.438Z,2.40
2023-06-03T06:10:12.987Z,2.20
2023-06-03T06:15:16.099Z,2.10
2023-06-03T06:20:19.455Z,2.40
2023-06-03T06:25:22.809Z,2.80
2023-06-03T06:30:25.842Z,2.80
2023-06-03T06:35:29.594Z,2.90
2023-06-03T06:40:34.938Z,3.00
2023-06-03T06:45:38.182Z,1.80
2023-06-03T06:50:47.966Z,2.50
2023-06-03T06:55:58.709Z,3.50
2023-06-03T07:01:02.289Z,3.60
2023-06-03T07:06:06.274Z,2.60
2023-06-03T07:11:09.745Z,2.20
2023-06-03T07:16:13.071Z,1.90
2023-06-03T07:21:16.878Z,2.00
2023-06-03T07:26:19.843Z,3.70
2023-06-03T07:31:22.849Z,2.10
2023-06-03T07:36:27.759Z,2.50
2023-06-03T07:41:38.134Z,2.70
2023-06-03T07:46:55.994Z,3.60
2023-06-03T07:51:58.837Z,1.70
2023-06-03T07:57:02.647Z,1.30
2023-06-03T08:02:07.747Z,2.20
2023-06-03T08:07:11.081Z,1.50
2023-06-03T08:12:14.170Z,2.10
2023-06-03T08:17:17.490Z,4.00
2023-06-03T08:22:42.964Z,4.20
2023-06-03T08:27:46.632Z,2.50
2023-06-03T08:32:51.081Z,2.40
2023-06-03T08:37:54.110Z,1.40
2023-06-03T08:43:01.815Z,1.30
2023-06-03T08:48:25.049Z,2.40
2023-06-03T08:53:27.928Z,1.60
2023-06-03T08:58:35.050Z,1.50
2023-06-03T09:03:38.230Z,2.00
2023-06-03T09:08:41.606Z,1.70
2023-06-03T09:13:44.481Z,2.10
2023-06-03T09:18:49.612Z,2.90
2023-06-03T09:23:52.731Z,2.50
2023-06-03T09:28:55.968Z,2.40
2023-06-03T09:33:59.234Z,1.10
2023-06-03T09:39:03.546Z,2.90
2023-06-03T09:44:10.039Z,2.10
2023-06-03T09:49:20.417Z,2.60
2023-06-03T09:54:31.674Z,1.10
2023-06-03T09:59:34.606Z,1.50
2023-06-03T10:04:47.921Z,1.40
2023-06-03T10:09:51.188Z,1.40
2023-06-03T10:14:54.581Z,0.70
2023-06-03T10:19:57.770Z,1.20
2023-06-03T10:25:00.741Z,1.80
2023-06-03T10:30:05.963Z,2.10
2023-06-03T10:35:11.942Z,2.70
2023-06-03T10:40:14.936Z,1.90
2023-06-03T10:45:17.918Z,2.10
2023-06-03T10:50:48.666Z,1.30
2023-06-03T10:56:14.470Z,1.20
2023-06-03T11:01:17.581Z,2.20
2023-06-03T11:06:22.491Z,2.30
2023-06-03T11:11:43.525Z,2.80
2023-06-03T11:16:58.829Z,2.60
2023-06-03T11:22:06.177Z,4.40
2023-06-03T11:27:14.973Z,1.60
2023-06-03T11:32:36.486Z,1.80
2023-06-03T11:37:42.712Z,3.50
2023-06-03T11:42:52.997Z,1.30
2023-06-03T11:48:08.629Z,2.50
2023-06-03T11:53:33.233Z,3.20
2023-06-03T11:58:37.421Z,3.30
2023-06-03T12:03:40.448Z,1.70
2023-06-03T12:08:50.590Z,3.80
2023-06-03T12:13:53.872Z,3.70
2023-06-03T12:18:56.906Z,2.20
2023-06-03T12:23:59.928Z,1.90
2023-06-03T12:29:13.712Z,1.30
2023-06-03T12:34:38.349Z,3.00
2023-06-03T12:39:49.665Z,3.70
2023-06-03T12:44:54.251Z,3.80
2023-06-03T12:50:10.687Z,1.20
2023-06-03T12:55:15.865Z,1.60
2023-06-03T13:00:23.585Z,1.50
2023-06-03T13:05:26.719Z,1.20
2023-06-03T13:10:30.234Z,2.40
2023-06-03T13:15:33.645Z,1.00
2023-06-03T13:20:36.592Z,1.30
2023-06-03T13:25:39.604Z,3.30
2023-06-03T13:30:42.530Z,1.90
2023-06-03T13:35:45.607Z,1.50
2023-06-03T13:40:48.469Z,9.60
2023-06-03T13:45:51.686Z,1.10
2023-06-03T13:50:54.804Z,0.90
2023-06-03T13:55:57.761Z,0.50
2023-06-03T14:01:00.677Z,2.00
2023-06-03T14:06:03.734Z,0.90
2023-06-03T14:16:11.659Z,2.30
2023-06-03T14:21:14.583Z,1.40
2023-06-03T14:26:19.760Z,1.30
2023-06-03T14:31:33.974Z,1.20
2023-06-03T14:36:39.506Z,2.60
2023-06-03T14:41:43.747Z,1.90
2023-06-03T14:46:46.820Z,1.60
2023-06-03T14:51:49.720Z,3.40
2023-06-03T14:56:52.803Z,2.00
2023-06-03T15:01:55.848Z,2.00
2023-06-03T15:06:58.959Z,1.70
2023-06-03T15:12:01.901Z,2.70
2023-06-03T15:17:05.101Z,0.90
2023-06-03T15:22:08.263Z,2.20
2023-06-03T15:27:11.737Z,1.40
2023-06-03T15:32:14.741Z,1.30
2023-06-03T15:37:17.679Z,1.30
2023-06-03T15:42:20.696Z,2.50
2023-06-03T15:47:24.431Z,2.80
2023-06-03T15:52:28.577Z,1.50
2023-06-03T15:57:31.687Z,1.90
2023-06-03T16:02:34.680Z,2.90
2023-06-03T16:07:37.825Z,1.30
2023-06-03T16:12:40.879Z,1.70
2023-06-03T16:17:43.925Z,1.70
2023-06-03T16:22:46.901Z,2.00
2023-06-03T16:27:51.802Z,3.00
2023-06-03T16:32:54.801Z,2.60
2023-06-03T16:37:57.723Z,1.90
2023-06-03T16:43:00.756Z,3.40
2023-06-03T16:48:04.141Z,3.40
2023-06-03T16:53:07.047Z,2.00
2023-06-03T16:58:10.001Z,2.70
2023-06-03T17:03:12.979Z,3.30
2023-06-03T17:08:16.077Z,1.50
2023-06-03T17:13:18.971Z,1.00
2023-06-03T17:18:21.866Z,0.90
2023-06-03T17:23:24.823Z,2.80
2023-06-03T17:28:27.910Z,2.20
2023-06-03T17:33:31.047Z,2.30
2023-06-03T17:38:34.014Z,2.00
2023-06-03T17:43:43.160Z,1.80
2023-06-03T17:48:46.159Z,1.40
2023-06-03T17:53:49.263Z,0.90
2023-06-03T17:58:52.428Z,2.00
2023-06-03T18:03:55.290Z,1.80
2023-06-03T18:08:58.752Z,2.60
2023-06-03T18:14:01.754Z,3.20
2023-06-03T18:19:04.838Z,1.60
2023-06-03T18:24:07.885Z,3.00
2023-06-03T18:29:10.820Z,4.10
2023-06-03T18:34:14.438Z,3.40
2023-06-03T18:39:17.517Z,4.20
2023-06-03T18:44:20.625Z,2.70
2023-06-03T18:49:23.588Z,2.40
2023-06-03T18:54:27.053Z,5.30
2023-06-03T18:59:30.262Z,5.10
2023-06-03T19:04:33.190Z,4.40
2023-06-03T19:09:36.375Z,6.40
2023-06-03T19:14:39.358Z,4.80
2023-06-03T19:19:42.596Z,8.40
2023-06-03T19:24:45.607Z,6.90
2023-06-03T19:29:48.534Z,5.50
2023-06-03T19:34:52.458Z,5.70
2023-06-03T19:39:56.553Z,6.50
2023-06-03T19:45:01.433Z,9.10
2023-06-03T19:50:05.197Z,8.30
2023-06-03T19:55:09.051Z,6.10
2023-06-03T20:00:13.244Z,7.00
2023-06-03T20:05:16.696Z,5.80
2023-06-03T20:10:19.696Z,7.50
2023-06-03T20:15:22.707Z,6.10
2023-06-03T20:20:25.652Z,7.70
2023-06-03T20:25:28.586Z,7.50
2023-06-03T20:30:32.262Z,9.70
2023-06-03T20:35:35.610Z,8.30
2023-06-03T20:40:38.958Z,5.70
2023-06-03T20:45:41.899Z,8.50
2023-06-03T20:50:44.836Z,10.20
2023-06-03T20:55:47.840Z,7.40
2023-06-03T21:00:50.781Z,5.80
2023-06-03T21:05:53.770Z,7.70
2023-06-03T21:10:56.885Z,6.70
2023-06-03T21:16:00.669Z,7.40
2023-06-03T21:21:03.751Z,7.20
2023-06-03T21:26:07.045Z,10.30
2023-06-03T21:31:10.142Z,8.90
2023-06-03T21:36:13.402Z,8.40
2023-06-03T21:41:16.273Z,9.20
2023-06-03T21:46:19.366Z,7.90
2023-06-03T21:51:22.604Z,8.90
2023-06-03T21:56:27.121Z,9.50
2023-06-03T22:01:31.091Z,6.50
2023-06-03T22:06:34.532Z,7.40
2023-06-03T22:11:37.390Z,8.30
2023-06-03T22:16:40.391Z,9.20
2023-06-03T22:21:44.498Z,8.40
2023-06-03T22:26:47.409Z,7.70
2023-06-03T22:31:50.331Z,7.40
2023-06-03T22:36:53.418Z,7.40
2023-06-03T22:41:56.773Z,8.40
2023-06-03T22:47:00.615Z,8.60
2023-06-03T22:52:03.917Z,10.10
2023-06-03T22:57:07.372Z,8.60
2023-06-03T23:02:10.585Z,12.10
2023-06-03T23:07:13.810Z,8.70
2023-06-03T23:12:17.104Z,10.70
2023-06-03T23:17:20.053Z,7.30
2023-06-03T23:22:23.044Z,7.60
2023-06-03T23:27:26.037Z,9.80
2023-06-03T23:32:29.150Z,8.90
2023-06-03T23:37:33.610Z,9.00
2023-06-03T23:42:36.874Z,13.00
2023-06-03T23:47:39.822Z,8.50
2023-06-03T23:52:42.691Z,9.50
2023-06-03T23:57:45.778Z,9.60
